Latest METARs, TAFs and NOTAMs for MROC


---------------------------------------------------------------------------
	(OBSERVATIONS)
MROC 181000Z 10013KT CAVOK 23/17 A2993 NOSIG=
MROC 180900Z 10010G20KT CAVOK 22/17 A2992 NOSIG=
MROC 180800Z 09010G20KT 060V120 CAVOK 22/17 A2993 NOSIG=
---------------------------------------------------------------------------
	(TERMINAL AREA FORECAST)
MROC 180500Z 1806/1906 10012KT 9999 FEW035
    TX30/1819Z TN20/1810Z
    TEMPO 1806/1818 11013G24KT
    TEMPO 1900/1902 VRB02KT=
---------------------------------------------------------------------------
	(NOTAMS)


MROC A0307/18 REF AIRAC AMDT NR 22 EFFECTIVE DATE 01 FEB 18,MROC
    AD 10.5 RNP W2 RWY 25 (AR) AVAILABLE FOR ACFT CAT D. 13 FEB
    18:19 2018 UNTIL PERM. CREATED: 13 FEB 18:23 2018

MROC A0317/18 REF AIRAC AMDT NR 22 EFFECTIVE DATE 01 FEB 18,
    MROC AD 10.6 RNP E2 RWY 25 (AR) AVAILABLE FOR ACFT CAT D.
    13 FEB 21:58 2018 UNTIL PERM. CREATED: 13 FEB 22:03 2018

MROC A0474/18 REF COSTA RICA AIP PAGS ENR 3.1-5, ENR 3.2-5, ENR
    3.3-1, ENR 4.4-1, MROC AD 7.2, MROC AD 7.6, MROC AD 9.2,
    MROC AD 9.6, ISEBA COORDINATES READ 093229N0825212W INSTEAD
    OF 093006N0824950W OR 084805.8N0841143.2W. 06 MAR 22:09 2018
    UNTIL PERM. CREATED: 06 MAR 22:09 2018

MROC A0741/18 INSTRUMENT APCH PROC RNAV GNSS RWY 07 CNL REF AD
    10.4/SUP AIP A03/16. 18 APR 19:32 2018 UNTIL PERM. CREATED:
    18 APR 19:34 2018

MROC A1417/18 AD FOR GEN AVIATION INTL OVERNIGHT STAY PROHIBITED.
    19 AUG 09:53 2018 UNTIL 19 NOV 23:59 2018. CREATED: 19 AUG
    10:03 2018

MROC A1572/16 VMC PROCEDURE AIRSPACE C REF COSTA RICA AIP PAGE
    MROC AD 2.23 CNL. 25 AUG 01:54 2016 UNTIL PERM. CREATED:
    25 AUG 01:55 2016

MROC A1624/18 TWY A 50M WEST OF TWY F TIL RWY 07 HOLDING BAY
    CLSD. 0500-1030, 22 SEP 05:00 2018 UNTIL 07 DEC 10:30 2018.
    CREATED: 22 SEP 04:14 2018

MROC A1625/18 TWY G CLSD. 0500-1030, 22 SEP 05:00 2018 UNTIL
    07 DEC 10:30 2018. CREATED: 22 SEP 04:15 2018

MROC A1686/18 REF AIRAC SUP A20/18 STAR RNAV CUARE OROSI HOLDING
    PATTERN MINIMUM ALTITUDE READ 14000FT INSTEAD OF 12000FT.
    01 OCT 21:02 2018 UNTIL PERM. CREATED: 01 OCT 21:08 2018

MROC A1690/18 GLIDE PATH RWY 07 ILS/DME CAT I IOCO 109.5MHZ/32X
    U/S. 19 NOV 00:00 2018 UNTIL 19 FEB 23:59 2019. CREATED:
    01 OCT 21:54 2018

MROC A1703/18 REF AIRAC SUP A20/18 STAR RNAV CUARE OROSI FIXED
    MINIMUM ALTITUDE 12000FT OR ABV. 03 OCT 01:56 2018 UNTIL
    PERM. CREATED: 03 OCT 02:02 2018

MROC A1876/18 RWY 07/25 CLSD. 0500-1030, 01 DEC 05:00 2018 UNTIL
    15 DEC 10:30 2018. CREATED: 23 OCT 03:31 2018

MROC A1900/18 TRIGGER NOTAM - PERM COSTA RICA AIRAC AIP AMDT
    23/18 WEF 06 DEC 2018 AIR TRAFFIC FLOW MANAGEMENT. 06 DEC
    00:00 2018 UNTIL 19 DEC 23:59 2018. CREATED: 25 OCT 16:31
    2018

MROC A1901/18 TRIGGER NOTAM - PERM COSTA RICA AIRAC AIP SUP 51/18
    WEF 06 DEC 2018 NEW NUMBERING PARKING STANDS JUAN SANTAMARIA
    INTL AIRPORT. 06 DEC 00:00 2018 UNTIL 19 DEC 23:59 2018.
    CREATED: 25 OCT 16:33 2018

MROC A1912/18 REF SUP AIRAC 20/18 SID RNAV DEPARTURE TEJAR 4M
    TEJAR 4B TEJAR 4I TEJAR 4T ALTITUDE RESTRICTION IS ELIMINATED
    IN THE FIXED OC265. 27 OCT 19:00 2018 UNTIL PERM. CREATED:
    27 OCT 19:07 2018

MROC A1967/18 FIC PERSONNEL IN TRAINING UNDER SUPERVISION. 01
    NOV 17:31 2018 UNTIL 01 JAN 12:00 2019. CREATED: 01 NOV 17:35
    2018

MROC A2056/18 REDL RWY 07/25 ON TEST. 14 NOV 00:07 2018 UNTIL
    29 NOV 23:59 2018. CREATED: 14 NOV 00:13 2018

MROC A2083/18 OBST ERECTED CRANE 42M HGT CENTERED COORD 095950.1N
    0841207.6W AT WEST SIDE OF AP TERMINAL. 17 NOV 12:00 2018
    UNTIL 19 NOV 23:59 2018. CREATED: 16 NOV 22:17 2018

MROC A2089/18 RWY 07/25 CLSD. 18 0520-1030 19-30 0500-1030, 18
    NOV 05:20 2018 UNTIL 30 NOV 10:30 2018. CREATED: 18 NOV 04:01
    2018

MROC C0293/17 CORREDOR VISUAL LA PALMA SE CORRIGEN LAS COORDENADAS
    DEL PUNTO PIEDA :095848N 0840224W.REF.SUP C27/16. 18 JUL
    21:58 2017 UNTIL PERM. CREATED: 18 JUL 21:59 2017

MROC V0122/18 [US DOD PROCEDURAL NOTAM] INSTRUMENT APPROACH PROCEDURE
    NOT AUTHORIZED VOR/DME RWY 07. 07 NOV 14:04 2018 UNTIL 15
    JAN 00:01 2019. CREATED: 07 NOV 14:04 2018

---------------------------------------------------------------------------